createdAt,value
2018-06-22T00:00:36.502Z,10.81
2018-06-22T00:01:36.431Z,10.83
2018-06-22T00:02:36.401Z,10.78
2018-06-22T00:03:36.370Z,10.78
2018-06-22T00:04:36.350Z,10.84
2018-06-22T00:05:36.322Z,10.84
2018-06-22T00:06:36.288Z,10.81
2018-06-22T00:07:36.260Z,10.84
2018-06-22T00:08:36.234Z,10.84
2018-06-22T00:09:36.205Z,10.84
2018-06-22T00:10:36.176Z,10.84
2018-06-22T00:11:36.148Z,10.90
2018-06-22T00:12:36.122Z,10.88
2018-06-22T00:13:36.095Z,10.86
2018-06-22T00:14:36.070Z,10.93
2018-06-22T00:15:36.042Z,10.90
2018-06-22T00:16:36.013Z,10.90
2018-06-22T00:17:35.986Z,10.83
2018-06-22T00:18:35.958Z,10.78
2018-06-22T00:19:35.931Z,10.86
2018-06-22T00:20:35.906Z,10.78
2018-06-22T00:21:35.878Z,10.60
2018-06-22T00:22:35.855Z,10.75
2018-06-22T00:23:35.821Z,10.68
2018-06-22T00:24:35.798Z,10.66
2018-06-22T00:25:35.768Z,10.70
2018-06-22T00:26:35.740Z,10.70
2018-06-22T00:27:35.716Z,10.72
2018-06-22T00:28:35.685Z,10.70
2018-06-22T00:29:35.655Z,10.69
2018-06-22T00:30:35.629Z,10.70
2018-06-22T00:31:35.599Z,10.72
2018-06-22T00:32:35.572Z,10.76
2018-06-22T00:33:35.547Z,10.69
2018-06-22T00:34:35.671Z,10.76
2018-06-22T00:35:35.495Z,10.75
2018-06-22T00:36:35.464Z,10.73
2018-06-22T00:37:35.437Z,10.70
2018-06-22T00:38:35.411Z,10.84
2018-06-22T00:39:35.379Z,10.75
2018-06-22T00:40:35.352Z,10.76
2018-06-22T00:41:35.325Z,10.72
2018-06-22T00:42:35.297Z,10.76
2018-06-22T00:43:35.270Z,10.80
2018-06-22T00:44:35.251Z,10.83
2018-06-22T00:45:35.216Z,10.81
2018-06-22T00:46:35.189Z,10.81
2018-06-22T00:47:35.161Z,10.76
2018-06-22T00:48:35.133Z,10.76
2018-06-22T00:49:35.105Z,10.81
2018-06-22T00:50:35.077Z,10.88
2018-06-22T00:51:35.053Z,10.70
2018-06-22T00:52:35.026Z,10.72
2018-06-22T00:53:34.995Z,10.68
2018-06-22T00:54:34.969Z,10.83
2018-06-22T00:55:34.941Z,10.78
2018-06-22T00:56:34.917Z,10.72
2018-06-22T00:57:34.888Z,10.75
2018-06-22T00:58:34.859Z,10.84
2018-06-22T00:59:34.829Z,10.72
2018-06-22T01:00:34.802Z,10.62
2018-06-22T01:01:34.778Z,10.80
2018-06-22T01:02:34.748Z,10.84
2018-06-22T01:03:34.870Z,10.69
2018-06-22T01:04:34.694Z,10.69
2018-06-22T01:05:34.665Z,10.72
2018-06-22T01:06:34.639Z,10.60
2018-06-22T01:07:34.609Z,10.69
2018-06-22T01:08:34.582Z,10.69
2018-06-22T01:09:34.557Z,10.78
2018-06-22T01:10:34.529Z,10.68
2018-06-22T01:11:34.501Z,10.80
2018-06-22T01:12:34.477Z,10.78
2018-06-22T01:13:34.451Z,10.69
2018-06-22T01:14:34.424Z,10.76
2018-06-22T01:15:34.391Z,10.69
2018-06-22T01:16:34.364Z,10.63
2018-06-22T01:17:34.337Z,10.62
2018-06-22T01:18:34.307Z,10.75
2018-06-22T01:19:34.281Z,10.76
2018-06-22T01:20:34.252Z,10.78
2018-06-22T01:21:34.225Z,10.69
2018-06-22T01:22:34.198Z,10.60
2018-06-22T01:23:34.170Z,10.63
2018-06-22T01:24:34.143Z,10.73
2018-06-22T01:25:34.140Z,10.66
2018-06-22T01:26:34.087Z,10.78
2018-06-22T01:27:34.076Z,10.72
2018-06-22T01:28:34.079Z,10.72
2018-06-22T01:29:34.002Z,10.69
2018-06-22T01:30:33.976Z,10.69
2018-06-22T01:31:33.947Z,10.73
2018-06-22T01:32:33.920Z,10.81
2018-06-22T01:33:33.895Z,10.81
2018-06-22T01:34:33.868Z,10.84
2018-06-22T01:35:33.838Z,10.87
2018-06-22T01:36:33.813Z,10.84
2018-06-22T01:37:33.785Z,10.80
2018-06-22T01:38:33.755Z,10.76
2018-06-22T01:39:33.731Z,10.76
2018-06-22T01:40:33.699Z,10.76
2018-06-22T01:41:33.674Z,10.76
2018-06-22T01:42:33.647Z,10.81
2018-06-22T01:43:33.618Z,10.76
2018-06-22T01:44:33.595Z,10.91
2018-06-22T01:45:33.563Z,10.88
2018-06-22T01:46:33.537Z,10.86
2018-06-22T01:47:33.508Z,10.83
2018-06-22T01:48:33.480Z,10.84
2018-06-22T01:49:33.452Z,10.80
2018-06-22T01:50:33.579Z,10.78
2018-06-22T01:51:33.396Z,10.83
2018-06-22T01:52:33.371Z,10.84
2018-06-22T01:53:33.349Z,10.72
2018-06-22T01:54:33.316Z,10.72
2018-06-22T01:55:33.291Z,10.66
2018-06-22T01:56:33.259Z,10.51
2018-06-22T01:57:33.231Z,10.38
2018-06-22T01:58:33.205Z,10.51
2018-06-22T01:59:33.175Z,10.44
2018-06-22T02:00:33.148Z,10.42
2018-06-22T02:01:33.121Z,10.43
2018-06-22T02:02:33.096Z,10.44
2018-06-22T02:03:33.065Z,10.47
2018-06-22T02:04:33.036Z,10.51
2018-06-22T02:05:33.012Z,10.52
2018-06-22T02:06:32.986Z,10.51
2018-06-22T02:07:32.996Z,10.54
2018-06-22T02:08:32.931Z,10.49
2018-06-22T02:09:32.900Z,10.52
2018-06-22T02:10:32.894Z,10.57
2018-06-22T02:11:32.845Z,10.51
2018-06-22T02:12:32.817Z,10.66
2018-06-22T02:13:32.794Z,10.63
2018-06-22T02:14:32.772Z,10.66
2018-06-22T02:15:32.736Z,10.70
2018-06-22T02:16:32.709Z,10.62
2018-06-22T02:17:32.680Z,10.65
2018-06-22T02:18:32.656Z,10.68
2018-06-22T02:19:32.626Z,10.66
2018-06-22T02:20:32.796Z,10.63
2018-06-22T02:21:32.573Z,10.65
2018-06-22T02:22:32.543Z,10.65
2018-06-22T02:23:32.514Z,10.72
2018-06-22T02:24:32.489Z,10.69
2018-06-22T02:25:32.467Z,10.62
2018-06-22T02:26:32.433Z,10.66
2018-06-22T02:27:32.405Z,10.73
2018-06-22T02:28:32.383Z,10.84
2018-06-22T02:29:32.348Z,10.86
2018-06-22T02:30:32.321Z,10.80
2018-06-22T02:31:32.292Z,10.65
2018-06-22T02:32:32.264Z,10.84
2018-06-22T02:33:32.239Z,11.02
2018-06-22T02:34:32.210Z,10.99
2018-06-22T02:35:32.182Z,11.02
2018-06-22T02:36:32.153Z,10.86
2018-06-22T02:37:32.130Z,10.86
2018-06-22T02:38:32.104Z,10.95
2018-06-22T02:39:32.073Z,10.95
2018-06-22T02:40:32.047Z,10.88
2018-06-22T02:41:32.017Z,10.87
2018-06-22T02:42:31.990Z,10.94
2018-06-22T02:43:31.965Z,10.95
2018-06-22T02:44:31.933Z,10.81
2018-06-22T02:45:31.913Z,10.95
2018-06-22T02:46:31.881Z,10.94
2018-06-22T02:47:31.853Z,10.91
2018-06-22T02:48:31.827Z,10.91
2018-06-22T02:49:31.799Z,10.84
2018-06-22T02:50:31.780Z,10.83
2018-06-22T02:51:31.750Z,10.84
2018-06-22T02:52:31.716Z,10.72
2018-06-22T02:53:31.691Z,10.73
2018-06-22T02:54:31.660Z,10.72
2018-06-22T02:55:31.634Z,10.72
2018-06-22T02:56:31.606Z,10.69
2018-06-22T02:57:31.588Z,10.72
2018-06-22T02:58:31.554Z,10.69
2018-06-22T02:59:31.532Z,10.72
2018-06-22T03:00:31.647Z,10.78
2018-06-22T03:01:31.471Z,10.73
2018-06-22T03:02:31.441Z,10.58
2018-06-22T03:03:31.424Z,10.57
2018-06-22T03:04:31.392Z,10.43
2018-06-22T03:05:31.365Z,10.42
2018-06-22T03:06:31.337Z,10.39
2018-06-22T03:07:31.304Z,10.36
2018-06-22T03:08:31.279Z,10.02
2018-06-22T03:09:31.248Z,9.89
2018-06-22T03:10:31.228Z,9.88
2018-06-22T03:11:31.193Z,9.83
2018-06-22T03:12:31.167Z,9.74
2018-06-22T03:13:31.142Z,9.74
2018-06-22T03:14:31.112Z,9.85
2018-06-22T03:15:31.089Z,9.92
2018-06-22T03:16:31.057Z,9.86
2018-06-22T03:17:31.027Z,9.85
2018-06-22T03:18:31.003Z,9.85
2018-06-22T03:19:30.972Z,9.96
2018-06-22T03:20:30.944Z,9.91
2018-06-22T03:21:30.916Z,9.88
2018-06-22T03:22:30.889Z,9.91
2018-06-22T03:23:30.869Z,9.91
2018-06-22T03:24:30.983Z,9.89
2018-06-22T03:25:30.807Z,9.92
2018-06-22T03:26:30.780Z,9.78
2018-06-22T03:27:30.752Z,9.85
2018-06-22T03:28:30.724Z,9.85
2018-06-22T03:29:30.694Z,9.86
2018-06-22T03:30:30.667Z,9.91
2018-06-22T03:31:30.637Z,9.93
2018-06-22T03:32:30.612Z,9.99
2018-06-22T03:33:30.585Z,10.01
2018-06-22T03:34:30.557Z,10.01
2018-06-22T03:35:30.528Z,10.04
2018-06-22T03:36:30.500Z,10.01
2018-06-22T03:37:30.473Z,10.04
2018-06-22T03:38:30.445Z,10.07
2018-06-22T03:39:30.462Z,10.09
2018-06-22T03:40:30.390Z,10.02
2018-06-22T03:41:30.361Z,10.02
2018-06-22T03:42:30.332Z,10.06
2018-06-22T03:43:30.303Z,10.09
2018-06-22T03:44:30.275Z,10.01
2018-06-22T03:45:30.250Z,10.11
2018-06-22T03:46:30.222Z,10.16
2018-06-22T03:47:30.193Z,10.14
2018-06-22T03:48:30.169Z,10.28
2018-06-22T03:49:30.136Z,10.43
2018-06-22T03:50:30.112Z,10.47
2018-06-22T03:51:30.081Z,10.46
2018-06-22T03:52:30.055Z,10.54
2018-06-22T03:53:30.027Z,10.65
2018-06-22T03:54:29.999Z,10.68
2018-06-22T03:55:29.971Z,10.65
2018-06-22T03:56:29.943Z,10.69
2018-06-22T03:57:29.917Z,10.70
2018-06-22T03:58:29.890Z,10.69
2018-06-22T03:59:29.861Z,10.86
2018-06-22T04:00:29.834Z,10.84
2018-06-22T04:01:29.805Z,10.81
2018-06-22T04:02:29.777Z,10.84
2018-06-22T04:03:29.748Z,10.76
2018-06-22T04:04:29.722Z,10.83
2018-06-22T04:05:29.703Z,10.78
2018-06-22T04:06:29.671Z,10.84
2018-06-22T04:07:29.641Z,10.80
2018-06-22T04:08:29.614Z,10.91
2018-06-22T04:09:29.585Z,10.78
2018-06-22T04:10:29.559Z,10.84
2018-06-22T04:11:29.681Z,10.78
2018-06-22T04:12:29.503Z,10.76
2018-06-22T04:13:29.474Z,10.83
2018-06-22T04:14:29.447Z,10.83
2018-06-22T04:15:29.417Z,10.81
2018-06-22T04:16:29.391Z,10.78
2018-06-22T04:17:29.365Z,10.76
2018-06-22T04:18:29.340Z,10.72
2018-06-22T04:19:29.311Z,10.81
2018-06-22T04:20:29.288Z,10.72
2018-06-22T04:21:29.255Z,10.84
2018-06-22T04:22:29.226Z,10.84
2018-06-22T04:23:29.199Z,10.81
2018-06-22T04:24:29.178Z,10.72
2018-06-22T04:25:29.151Z,10.90
2018-06-22T04:26:29.122Z,10.86
2018-06-22T04:27:29.091Z,10.78
2018-06-22T04:28:29.062Z,10.83
2018-06-22T04:29:29.187Z,10.84
2018-06-22T04:30:29.010Z,10.91
2018-06-22T04:31:28.984Z,10.84
2018-06-22T04:32:28.956Z,10.90
2018-06-22T04:33:28.924Z,10.93
2018-06-22T04:34:28.906Z,10.91
2018-06-22T04:35:28.870Z,10.88
2018-06-22T04:36:28.845Z,10.93
2018-06-22T04:37:28.818Z,10.87
2018-06-22T04:38:28.789Z,10.78
2018-06-22T04:39:28.764Z,10.80
2018-06-22T04:40:28.735Z,10.83
2018-06-22T04:41:28.707Z,10.84
2018-06-22T04:42:28.686Z,10.87
2018-06-22T04:43:28.652Z,10.95
2018-06-22T04:44:28.628Z,10.95
2018-06-22T04:45:28.596Z,11.03
2018-06-22T04:46:28.572Z,10.99
2018-06-22T04:47:28.690Z,11.11
2018-06-22T04:48:28.514Z,11.03
2018-06-22T04:49:28.487Z,11.12
2018-06-22T04:50:28.462Z,11.28
2018-06-22T04:51:28.436Z,11.28
2018-06-22T04:52:28.406Z,11.21
2018-06-22T04:53:28.383Z,11.21
2018-06-22T04:54:28.351Z,11.23
2018-06-22T04:55:28.323Z,11.26
2018-06-22T04:56:28.297Z,11.28
2018-06-22T04:57:28.268Z,11.20
2018-06-22T04:58:28.243Z,11.13
2018-06-22T04:59:28.214Z,11.16
2018-06-22T05:00:28.191Z,11.19
2018-06-22T05:01:28.164Z,11.05
2018-06-22T05:02:28.136Z,11.01
2018-06-22T05:03:28.108Z,11.02
2018-06-22T05:04:28.984Z,10.94
2018-06-22T05:05:28.057Z,10.91
2018-06-22T05:06:28.028Z,10.87
2018-06-22T05:07:28.014Z,10.76
2018-06-22T05:08:27.974Z,10.73
2018-06-22T05:09:27.949Z,10.72
2018-06-22T05:10:27.974Z,10.69
2018-06-22T05:11:27.893Z,10.81
2018-06-22T05:12:27.865Z,10.69
2018-06-22T05:13:27.836Z,10.69
2018-06-22T05:14:27.808Z,10.73
2018-06-22T05:15:27.781Z,10.73
2018-06-22T05:16:27.761Z,10.66
2018-06-22T05:17:27.729Z,10.78
2018-06-22T05:18:27.704Z,10.80
2018-06-22T05:19:27.674Z,10.80
2018-06-22T05:20:27.647Z,10.78
2018-06-22T05:21:27.619Z,10.86
2018-06-22T05:22:27.591Z,10.76
2018-06-22T05:23:27.563Z,10.80
2018-06-22T05:24:27.542Z,10.81
2018-06-22T05:25:27.510Z,10.83
2018-06-22T05:26:27.485Z,10.84
2018-06-22T05:27:27.461Z,10.90
2018-06-22T05:28:27.435Z,10.83
2018-06-22T05:29:27.411Z,10.84
2018-06-22T05:30:27.411Z,10.87
2018-06-22T05:31:27.347Z,10.81
2018-06-22T05:32:27.328Z,10.84
2018-06-22T05:33:27.292Z,10.90
2018-06-22T05:34:27.265Z,10.98
2018-06-22T05:35:27.240Z,11.06
2018-06-22T05:36:27.213Z,11.11
2018-06-22T05:37:27.186Z,11.12
2018-06-22T05:38:27.160Z,11.08
2018-06-22T05:39:27.130Z,11.08
2018-06-22T05:40:27.105Z,11.08
2018-06-22T05:41:27.099Z,11.08
2018-06-22T05:42:27.050Z,11.17
2018-06-22T05:43:27.024Z,11.09
2018-06-22T05:44:26.999Z,11.11
2018-06-22T05:45:26.970Z,11.11
2018-06-22T05:46:26.942Z,11.11
2018-06-22T05:47:26.917Z,11.06
2018-06-22T05:48:26.890Z,11.19
2018-06-22T05:49:26.866Z,11.21
2018-06-22T05:50:26.840Z,11.13
2018-06-22T05:51:26.814Z,11.27
2018-06-22T05:52:26.785Z,11.45
2018-06-22T05:53:26.758Z,11.45
2018-06-22T05:54:26.733Z,11.49
2018-06-22T05:55:26.707Z,11.41
2018-06-22T05:56:26.713Z,11.45
2018-06-22T05:57:26.655Z,11.45
2018-06-22T05:58:26.629Z,11.67
2018-06-22T05:59:26.603Z,11.93
2018-06-22T06:00:26.576Z,12.36
2018-06-22T06:01:26.770Z,11.85
2018-06-22T06:02:26.526Z,12.31
2018-06-22T06:03:26.557Z,12.26
2018-06-22T06:04:26.477Z,11.93
2018-06-22T06:05:26.448Z,11.79
2018-06-22T06:06:26.421Z,11.81
2018-06-22T06:07:26.398Z,11.70
2018-06-22T06:08:26.368Z,11.56
2018-06-22T06:09:26.347Z,11.59
2018-06-22T06:10:26.322Z,11.57
2018-06-22T06:11:26.295Z,11.66
2018-06-22T06:12:26.394Z,11.59
2018-06-22T06:13:26.246Z,11.56
2018-06-22T06:14:26.219Z,11.42
2018-06-22T06:15:26.194Z,11.49
2018-06-22T06:16:26.168Z,11.62
2018-06-22T06:17:26.144Z,11.59
2018-06-22T06:18:26.120Z,11.45
2018-06-22T06:19:26.094Z,11.53
2018-06-22T06:20:26.067Z,11.38
2018-06-22T06:21:26.041Z,11.35
2018-06-22T06:22:26.020Z,11.33
2018-06-22T06:23:25.990Z,11.33
2018-06-22T06:24:25.964Z,11.28
2018-06-22T06:25:25.940Z,11.26
2018-06-22T06:26:25.916Z,11.45
2018-06-22T06:27:25.891Z,11.51
2018-06-22T06:28:25.866Z,11.42
2018-06-22T06:29:25.838Z,11.39
2018-06-22T06:30:25.811Z,11.49
2018-06-22T06:31:25.787Z,11.54
2018-06-22T06:32:25.760Z,11.53
2018-06-22T06:33:25.733Z,11.51
2018-06-22T06:34:25.762Z,11.54
2018-06-22T06:35:25.681Z,11.53
2018-06-22T06:36:25.657Z,11.62
2018-06-22T06:37:25.632Z,11.85
2018-06-22T06:38:25.607Z,11.98
2018-06-22T06:39:25.580Z,11.79
2018-06-22T06:40:25.556Z,11.97
2018-06-22T06:41:25.528Z,12.01
2018-06-22T06:42:25.527Z,11.84
2018-06-22T06:43:25.481Z,11.79
2018-06-22T06:44:25.456Z,11.74
2018-06-22T06:45:25.431Z,11.60
2018-06-22T06:46:25.403Z,11.62
2018-06-22T06:47:25.378Z,11.69
2018-06-22T06:48:25.354Z,11.70
2018-06-22T06:49:25.331Z,11.75
2018-06-22T06:50:25.303Z,11.67
2018-06-22T06:51:25.282Z,11.70
2018-06-22T06:52:25.254Z,11.59
2018-06-22T06:53:25.224Z,11.64
2018-06-22T06:54:25.198Z,11.62
2018-06-22T06:55:25.172Z,11.60
2018-06-22T06:56:25.147Z,11.66
2018-06-22T06:57:25.123Z,11.74
2018-06-22T06:58:25.099Z,11.78
2018-06-22T06:59:25.071Z,11.82
2018-06-22T07:00:25.046Z,12.01
2018-06-22T07:01:25.025Z,12.11
2018-06-22T07:02:25.017Z,12.07
2018-06-22T07:03:24.965Z,12.15
2018-06-22T07:04:24.941Z,12.05
2018-06-22T07:05:24.914Z,12.19
2018-06-22T07:06:24.890Z,12.22
2018-06-22T07:07:24.863Z,12.22
2018-06-22T07:08:24.845Z,12.21
2018-06-22T07:09:24.815Z,12.21
2018-06-22T07:10:24.788Z,12.33
2018-06-22T07:11:24.761Z,12.40
2018-06-22T07:12:24.738Z,12.48
2018-06-22T07:13:24.716Z,12.63
2018-06-22T07:14:24.727Z,12.76
2018-06-22T07:15:24.660Z,13.09
2018-06-22T07:16:24.634Z,13.03
2018-06-22T07:17:24.611Z,13.10
2018-06-22T07:18:24.583Z,13.03
2018-06-22T07:19:24.558Z,13.13
2018-06-22T07:20:24.538Z,13.12
2018-06-22T07:21:24.508Z,13.04
2018-06-22T07:22:24.486Z,13.14
2018-06-22T07:23:24.497Z,13.21
2018-06-22T07:24:24.431Z,13.13
2018-06-22T07:25:24.417Z,13.96
2018-06-22T07:26:24.389Z,14.52
2018-06-22T07:27:24.358Z,15.00
2018-06-22T07:28:24.333Z,14.93
2018-06-22T07:29:24.308Z,14.60
2018-06-22T07:30:25.044Z,14.41
2018-06-22T07:31:24.259Z,15.43
2018-06-22T07:32:24.245Z,15.73
2018-06-22T07:33:24.218Z,15.25
2018-06-22T07:34:24.194Z,14.85
2018-06-22T07:35:24.176Z,14.52
2018-06-22T07:36:24.299Z,14.31
2018-06-22T07:37:24.127Z,14.09
2018-06-22T07:38:24.104Z,13.99
2018-06-22T07:39:24.081Z,14.12
2018-06-22T07:40:24.060Z,13.88
2018-06-22T07:41:24.035Z,13.88
2018-06-22T07:42:24.014Z,14.05
2018-06-22T07:43:23.991Z,14.08
2018-06-22T07:44:23.968Z,14.26
2018-06-22T07:45:23.948Z,14.53
2018-06-22T07:46:23.927Z,14.69
2018-06-22T07:47:23.903Z,14.93
2018-06-22T07:48:23.885Z,15.20
2018-06-22T07:49:23.856Z,15.78
2018-06-22T07:50:23.833Z,15.43
2018-06-22T07:51:23.811Z,15.34
2018-06-22T07:52:23.789Z,15.40
2018-06-22T07:53:23.769Z,15.53
2018-06-22T07:54:23.745Z,15.37
2018-06-22T07:55:23.723Z,15.41
2018-06-22T07:56:23.702Z,16.07
2018-06-22T07:57:23.884Z,16.40
2018-06-22T07:58:23.662Z,16.54
2018-06-22T07:59:23.639Z,16.84
2018-06-22T08:00:23.634Z,16.55
2018-06-22T08:01:23.594Z,17.49
2018-06-22T08:02:23.572Z,17.22
2018-06-22T08:03:23.552Z,17.83
2018-06-22T08:04:23.532Z,17.14
2018-06-22T08:05:23.516Z,17.22
2018-06-22T08:06:23.575Z,17.09
2018-06-22T08:07:23.477Z,16.73
2018-06-22T08:08:23.453Z,17.38
2018-06-22T08:09:23.435Z,17.42
2018-06-22T08:10:23.418Z,16.98
2018-06-22T08:11:23.598Z,16.36
2018-06-22T08:12:23.377Z,16.67
2018-06-22T08:13:23.360Z,17.10
2018-06-22T08:14:23.337Z,17.49
2018-06-22T08:15:23.318Z,16.72
2018-06-22T08:16:23.299Z,16.22
2018-06-22T08:17:23.282Z,15.89
2018-06-22T08:18:23.268Z,15.53
2018-06-22T08:19:23.241Z,15.43
2018-06-22T08:20:23.239Z,15.31
2018-06-22T08:21:23.203Z,15.25
2018-06-22T08:22:23.182Z,15.34
2018-06-22T08:23:23.161Z,15.33
2018-06-22T08:24:23.141Z,15.11
2018-06-22T08:25:23.122Z,15.16
2018-06-22T08:26:23.104Z,14.97
2018-06-22T08:27:23.080Z,14.90
2018-06-22T08:28:23.060Z,14.83
2018-06-22T08:29:23.042Z,14.87
2018-06-22T08:30:23.028Z,15.00
2018-06-22T08:31:22.999Z,15.05
2018-06-22T08:32:22.980Z,15.92
2018-06-22T08:33:22.957Z,16.52
2018-06-22T08:34:23.185Z,16.34
2018-06-22T08:35:22.913Z,16.44
2018-06-22T08:36:22.892Z,16.51
2018-06-22T08:37:22.874Z,16.36
2018-06-22T08:38:22.852Z,16.03
2018-06-22T08:39:22.831Z,16.07
2018-06-22T08:40:22.813Z,16.18
2018-06-22T08:41:22.798Z,16.18
2018-06-22T08:42:22.774Z,15.99
2018-06-22T08:43:22.748Z,15.80
2018-06-22T08:44:22.726Z,15.48
2018-06-22T08:45:22.705Z,15.19
2018-06-22T08:46:22.684Z,14.69
2018-06-22T08:47:22.663Z,14.56
2018-06-22T08:48:22.645Z,15.04
2018-06-22T08:49:22.628Z,15.30
2018-06-22T08:50:22.602Z,15.74
2018-06-22T08:51:22.583Z,16.04
2018-06-22T08:52:22.559Z,15.88
2018-06-22T08:53:22.538Z,16.40
2018-06-22T08:54:22.521Z,16.08
2018-06-22T08:55:22.498Z,16.01
2018-06-22T08:56:22.477Z,16.63
2018-06-22T08:57:22.462Z,17.27
2018-06-22T08:58:22.440Z,17.40
2018-06-22T08:59:22.622Z,16.81
2018-06-22T09:00:22.405Z,16.73
2018-06-22T09:01:22.622Z,16.85
2018-06-22T09:02:22.567Z,16.75
2018-06-22T09:03:22.553Z,16.63
2018-06-22T09:04:22.833Z,16.40
2018-06-22T09:05:22.308Z,17.00
2018-06-22T09:06:22.498Z,17.63
2018-06-22T09:07:22.879Z,18.01
2018-06-22T09:08:22.458Z,17.95
2018-06-22T09:09:22.443Z,17.30
2018-06-22T09:10:25.046Z,17.17
2018-06-22T09:11:22.405Z,17.05
2018-06-22T09:12:22.392Z,17.05
2018-06-22T09:13:22.372Z,17.21
2018-06-22T09:14:22.388Z,17.66
2018-06-22T09:15:22.338Z,17.55
2018-06-22T09:16:22.318Z,17.84
2018-06-22T09:17:22.301Z,17.07
2018-06-22T09:18:22.284Z,17.27
2018-06-22T09:19:22.065Z,16.78
2018-06-22T09:20:22.049Z,16.57
2018-06-22T09:21:22.236Z,16.17
2018-06-22T09:22:22.219Z,15.74
2018-06-22T09:23:22.201Z,15.46
2018-06-22T09:24:22.182Z,15.22
2018-06-22T09:25:21.984Z,15.20
2018-06-22T09:26:22.145Z,15.35
2018-06-22T09:27:21.924Z,15.44
2018-06-22T09:28:22.059Z,15.99
2018-06-22T09:29:21.890Z,16.87
2018-06-22T09:30:21.867Z,17.87
2018-06-22T09:31:21.853Z,18.29
2018-06-22T09:32:21.829Z,18.72
2018-06-22T09:33:21.811Z,19.68
2018-06-22T09:34:21.994Z,18.66
2018-06-22T09:35:21.971Z,19.17
2018-06-22T09:36:21.957Z,19.07
2018-06-22T09:37:21.940Z,19.01
2018-06-22T09:38:21.772Z,19.01
2018-06-22T09:39:21.900Z,18.42
2018-06-22T09:40:22.033Z,18.34
2018-06-22T09:41:21.865Z,18.56
2018-06-22T09:42:21.850Z,19.23
2018-06-22T09:43:21.628Z,19.95
2018-06-22T09:44:21.815Z,19.53
2018-06-22T09:45:21.798Z,19.10
2018-06-22T09:46:21.785Z,18.51
2018-06-22T09:47:21.562Z,18.64
2018-06-22T09:48:21.553Z,18.56
2018-06-22T09:49:21.534Z,19.05
2018-06-22T09:50:21.517Z,18.83
2018-06-22T09:51:21.507Z,18.90
2018-06-22T09:52:21.485Z,18.42
2018-06-22T09:53:21.469Z,19.31
2018-06-22T09:54:21.455Z,19.64
2018-06-22T09:55:21.437Z,18.69
2018-06-22T09:56:21.419Z,18.87
2018-06-22T09:57:21.404Z,18.57
2018-06-22T09:58:21.392Z,18.50
2018-06-22T09:59:21.373Z,18.25
2018-06-22T10:00:21.357Z,18.17
2018-06-22T10:01:21.340Z,17.92
2018-06-22T10:02:21.323Z,17.92
2018-06-22T10:03:21.507Z,17.62
2018-06-22T10:04:21.491Z,17.40
2018-06-22T10:05:21.475Z,17.07
2018-06-22T10:06:21.459Z,16.87
2018-06-22T10:07:21.436Z,16.85
2018-06-22T10:08:21.487Z,16.90
2018-06-22T10:09:21.402Z,17.07
2018-06-22T10:10:21.180Z,16.99
2018-06-22T10:11:21.369Z,17.06
2018-06-22T10:12:21.347Z,17.12
2018-06-22T10:13:21.325Z,17.47
2018-06-22T10:14:21.105Z,17.98
2018-06-22T10:15:21.283Z,18.29
2018-06-22T10:16:21.263Z,18.28
2018-06-22T10:17:21.244Z,18.57
2018-06-22T10:18:21.225Z,18.50
2018-06-22T10:19:21.204Z,18.68
2018-06-22T10:20:20.985Z,18.42
2018-06-22T10:21:20.968Z,18.46
2018-06-22T10:22:21.152Z,18.34
2018-06-22T10:23:21.136Z,18.28
2018-06-22T10:25:04.487Z,18.41
2018-06-22T10:26:03.258Z,18.86
2018-06-22T10:27:45.394Z,19.12
2018-06-22T10:28:45.380Z,19.79
2018-06-22T10:29:45.162Z,20.33
2018-06-22T10:30:45.343Z,20.15
2018-06-22T10:31:45.124Z,19.95
2018-06-22T10:32:45.313Z,20.10
2018-06-22T10:33:45.293Z,20.31
2018-06-22T10:34:45.280Z,19.53
2018-06-22T10:35:45.062Z,19.06
2018-06-22T10:36:45.051Z,19.02
2018-06-22T10:37:45.031Z,18.62
2018-06-22T10:38:45.016Z,18.19
2018-06-22T10:39:44.997Z,17.32
2018-06-22T10:40:45.182Z,17.38
2018-06-22T10:42:27.324Z,17.25
2018-06-22T10:43:27.308Z,17.33
2018-06-22T10:44:27.293Z,17.87
2018-06-22T10:45:27.270Z,18.51
2018-06-22T10:46:27.257Z,18.72
2018-06-22T10:47:27.030Z,19.13
2018-06-22T10:48:27.216Z,19.49
2018-06-22T10:49:27.007Z,19.76
2018-06-22T10:50:26.991Z,19.47
2018-06-22T10:51:27.020Z,19.65
2018-06-22T10:52:26.956Z,20.15
2018-06-22T10:53:27.129Z,19.13
2018-06-22T10:54:26.912Z,18.83
2018-06-22T10:55:26.892Z,18.11
2018-06-22T10:56:26.877Z,17.95
2018-06-22T10:57:26.860Z,17.89
2018-06-22T10:58:27.052Z,17.70
2018-06-22T10:59:26.824Z,17.73
2018-06-22T11:00:26.807Z,17.79
2018-06-22T11:01:26.795Z,18.53
2018-06-22T11:02:26.774Z,18.56
2018-06-22T11:03:26.957Z,18.34
2018-06-22T11:04:26.743Z,18.83
2018-06-22T11:05:26.721Z,19.25
2018-06-22T11:06:26.706Z,19.58
2018-06-22T11:07:26.683Z,19.82
2018-06-22T11:08:26.867Z,19.94
2018-06-22T11:09:26.853Z,19.61
2018-06-22T11:10:26.836Z,19.55
2018-06-22T11:11:26.617Z,19.45
2018-06-22T11:12:26.601Z,19.52
2018-06-22T11:13:26.849Z,19.53
2018-06-22T11:14:26.569Z,19.90
2018-06-22T11:15:26.561Z,20.13
2018-06-22T11:16:26.741Z,19.82
2018-06-22T11:17:26.722Z,19.64
2018-06-22T11:18:26.647Z,19.45
2018-06-22T11:19:27.296Z,19.60
2018-06-22T11:20:26.474Z,19.50
2018-06-22T11:21:26.461Z,19.52
2018-06-22T11:22:26.446Z,19.24
2018-06-22T11:23:26.431Z,19.17
2018-06-22T11:24:26.434Z,19.34
2018-06-22T11:25:26.613Z,19.65
2018-06-22T11:26:26.385Z,19.62
2018-06-22T11:27:26.410Z,19.83
2018-06-22T11:28:26.355Z,20.15
2018-06-22T11:29:26.341Z,19.87
2018-06-22T11:30:26.329Z,19.07
2018-06-22T11:31:26.315Z,19.09
2018-06-22T11:32:26.297Z,18.82
2018-06-22T11:33:26.288Z,18.54
2018-06-22T11:34:26.474Z,18.66
2018-06-22T11:35:26.256Z,18.25
2018-06-22T11:36:26.316Z,18.26
2018-06-22T11:37:26.226Z,18.50
2018-06-22T11:38:26.208Z,18.35
2018-06-22T11:39:26.192Z,18.64
2018-06-22T11:40:26.176Z,18.51
2018-06-22T11:41:26.271Z,18.13
2018-06-22T11:42:26.348Z,17.87
2018-06-22T11:43:26.330Z,17.81
2018-06-22T11:44:26.320Z,17.81
2018-06-22T11:45:26.445Z,17.91
2018-06-22T11:46:26.276Z,18.41
2018-06-22T11:47:26.258Z,17.99
2018-06-22T11:48:26.245Z,18.38
2018-06-22T11:49:26.025Z,17.86
2018-06-22T11:50:26.011Z,17.70
2018-06-22T11:51:25.989Z,17.76
2018-06-22T11:52:26.176Z,17.89
2018-06-22T11:53:26.152Z,17.99
2018-06-22T11:54:25.932Z,18.14
2018-06-22T11:55:26.120Z,18.65
2018-06-22T11:56:26.100Z,18.59
2018-06-22T11:57:26.087Z,18.91
2018-06-22T11:58:25.862Z,18.46
2018-06-22T11:59:25.843Z,18.01
2018-06-22T12:00:25.823Z,18.38
2018-06-22T12:01:25.807Z,18.50
2018-06-22T12:02:25.796Z,18.71
2018-06-22T12:03:25.771Z,18.39
2018-06-22T12:04:25.756Z,18.54
2018-06-22T12:05:25.733Z,18.16
2018-06-22T12:06:25.916Z,18.32
2018-06-22T12:07:25.696Z,18.57
2018-06-22T12:08:25.676Z,18.83
2018-06-22T12:09:25.865Z,18.83
2018-06-22T12:10:25.845Z,18.86
2018-06-22T12:11:25.894Z,18.59
2018-06-22T12:12:25.810Z,18.65
2018-06-22T12:13:25.591Z,18.39
2018-06-22T12:14:25.777Z,18.38
2018-06-22T12:15:25.553Z,18.34
2018-06-22T12:16:25.536Z,18.21
2018-06-22T12:17:25.720Z,18.13
2018-06-22T12:18:25.705Z,18.13
2018-06-22T12:19:25.709Z,18.50
2018-06-22T12:20:25.466Z,18.79
2018-06-22T12:21:25.649Z,18.64
2018-06-22T12:22:25.431Z,18.57
2018-06-22T12:23:25.412Z,18.29
2018-06-22T12:24:25.604Z,17.95
2018-06-22T12:25:25.379Z,17.95
2018-06-22T12:26:25.561Z,17.99
2018-06-22T12:27:25.539Z,17.98
2018-06-22T12:28:25.326Z,17.99
2018-06-22T12:29:25.303Z,17.51
2018-06-22T12:30:25.488Z,17.45
2018-06-22T12:31:25.266Z,17.33
2018-06-22T12:32:25.449Z,17.47
2018-06-22T12:33:25.229Z,17.38
2018-06-22T12:34:25.210Z,17.47
2018-06-22T12:35:25.192Z,17.95
2018-06-22T12:36:28.059Z,18.07
2018-06-22T12:37:25.354Z,18.21
2018-06-22T12:38:25.335Z,17.95
2018-06-22T12:39:25.113Z,17.91
2018-06-22T12:40:25.097Z,17.89
2018-06-22T12:41:25.079Z,18.10
2018-06-22T12:42:25.062Z,17.96
2018-06-22T12:43:25.039Z,18.07
2018-06-22T12:44:25.021Z,17.70
2018-06-22T12:45:25.201Z,17.70
2018-06-22T12:46:25.188Z,17.63
2018-06-22T12:49:31.628Z,18.02
2018-06-22T12:50:31.668Z,18.01
2018-06-22T12:51:31.391Z,18.51
2018-06-22T12:52:31.366Z,18.14
2018-06-22T12:53:31.343Z,17.74
2018-06-22T12:54:31.322Z,17.63
2018-06-22T12:55:31.303Z,17.63
2018-06-22T12:56:31.284Z,17.73
2018-06-22T12:57:31.296Z,17.35